createdAt,value
2019-03-30T00:02:12.389Z,13.87
2019-03-30T00:04:42.128Z,13.47
2019-03-30T00:07:11.733Z,12.73
2019-03-30T00:09:41.438Z,11.03
2019-03-30T00:12:11.438Z,10.60
2019-03-30T00:14:40.868Z,11.33
2019-03-30T00:17:12.102Z,11.33
2019-03-30T00:19:41.808Z,10.30
2019-03-30T00:22:11.462Z,9.80
2019-03-30T00:24:41.267Z,10.00
2019-03-30T00:27:11.157Z,8.40
2019-03-30T00:29:40.883Z,8.80
2019-03-30T00:32:10.576Z,9.47
2019-03-30T00:34:40.487Z,9.67
2019-03-30T00:37:10.630Z,9.03
2019-03-30T00:39:40.397Z,9.57
2019-03-30T00:42:10.065Z,9.80
2019-03-30T00:44:39.733Z,9.63
2019-03-30T00:47:09.045Z,9.30
2019-03-30T00:49:49.015Z,9.10
2019-03-30T00:52:10.039Z,9.07
2019-03-30T00:54:39.776Z,9.53
2019-03-30T00:57:09.677Z,9.77
2019-03-30T00:59:39.491Z,9.87
2019-03-30T01:02:09.332Z,8.90
2019-03-30T01:04:39.259Z,9.13
2019-03-30T01:07:09.164Z,9.03
2019-03-30T01:09:41.833Z,8.73
2019-03-30T01:12:12.027Z,9.60
2019-03-30T01:14:41.651Z,9.77
2019-03-30T01:17:11.164Z,9.10
2019-03-30T01:19:40.763Z,9.73
2019-03-30T01:22:10.156Z,9.90
2019-03-30T01:24:39.853Z,10.20
2019-03-30T01:27:09.466Z,8.77
2019-03-30T01:29:39.340Z,9.63
2019-03-30T01:32:08.990Z,9.27
2019-03-30T01:34:38.701Z,8.87
2019-03-30T01:37:08.911Z,9.70
2019-03-30T01:39:38.608Z,8.97
2019-03-30T01:42:08.540Z,8.13
2019-03-30T01:44:38.347Z,8.50
2019-03-30T01:47:07.887Z,9.33
2019-03-30T01:49:37.461Z,8.73
2019-03-30T01:52:06.850Z,8.63
2019-03-30T01:54:36.231Z,9.30
2019-03-30T01:57:05.676Z,8.57
2019-03-30T01:59:35.570Z,9.20
2019-03-30T02:02:05.284Z,8.73
2019-03-30T02:04:34.886Z,8.83
2019-03-30T02:07:04.700Z,8.90
2019-03-30T02:09:34.323Z,9.33
2019-03-30T02:12:03.890Z,9.23
2019-03-30T02:14:33.456Z,9.93
2019-03-30T02:17:03.077Z,8.87
2019-03-30T02:19:32.796Z,9.37
2019-03-30T02:22:02.385Z,9.97
2019-03-30T02:24:31.942Z,9.47
2019-03-30T02:27:01.977Z,9.63
2019-03-30T02:29:31.696Z,9.50
2019-03-30T02:32:01.429Z,8.80
2019-03-30T02:34:31.184Z,9.77
2019-03-30T02:37:00.762Z,9.30
2019-03-30T02:39:30.229Z,9.33
2019-03-30T02:42:00.397Z,8.90
2019-03-30T02:44:30.146Z,9.30
2019-03-30T02:46:59.789Z,8.97
2019-03-30T02:49:29.557Z,8.60
2019-03-30T02:51:59.149Z,8.13
2019-03-30T02:54:28.662Z,8.37
2019-03-30T02:56:58.478Z,8.60
2019-03-30T02:59:28.233Z,9.60
2019-03-30T03:01:57.866Z,8.40
2019-03-30T03:04:27.914Z,8.77
2019-03-30T03:06:57.468Z,9.63
2019-03-30T03:09:26.912Z,9.27
2019-03-30T03:11:56.742Z,8.93
2019-03-30T03:14:26.641Z,9.67
2019-03-30T03:16:56.529Z,9.53
2019-03-30T03:19:26.473Z,8.63
2019-03-30T03:21:56.685Z,9.50
2019-03-30T03:24:26.289Z,9.13
2019-03-30T03:26:56.817Z,9.10
2019-03-30T03:29:26.609Z,9.33
2019-03-30T03:31:56.620Z,9.00
2019-03-30T03:34:26.908Z,9.03
2019-03-30T03:36:59.764Z,10.07
2019-03-30T03:39:30.456Z,8.87
2019-03-30T03:42:00.347Z,8.93
2019-03-30T03:44:35.958Z,9.80
2019-03-30T03:47:06.467Z,10.37
2019-03-30T03:49:37.360Z,9.40
2019-03-30T03:52:07.541Z,10.13
2019-03-30T03:54:37.490Z,10.17
2019-03-30T03:57:07.640Z,9.93
2019-03-30T03:59:41.271Z,10.83
2019-03-30T04:02:12.152Z,9.40
2019-03-30T04:04:47.534Z,11.03
2019-03-30T04:07:17.832Z,9.90
2019-03-30T04:09:49.792Z,9.53
2019-03-30T04:12:22.428Z,9.57
2019-03-30T04:14:54.981Z,10.83
2019-03-30T04:17:25.033Z,10.83
2019-03-30T04:19:55.011Z,10.73
2019-03-30T04:22:24.558Z,11.10
2019-03-30T04:24:54.187Z,10.10
2019-03-30T04:27:24.251Z,10.10
2019-03-30T04:29:53.735Z,10.70
2019-03-30T04:32:23.341Z,11.17
2019-03-30T04:34:52.846Z,10.90
2019-03-30T04:37:22.563Z,11.03
2019-03-30T04:39:52.140Z,11.00
2019-03-30T04:42:21.679Z,11.27
2019-03-30T04:44:51.369Z,11.17
2019-03-30T04:47:21.084Z,11.03
2019-03-30T04:49:50.571Z,11.07
2019-03-30T04:52:20.455Z,11.17
2019-03-30T04:54:50.091Z,10.97
2019-03-30T04:57:20.013Z,11.40
2019-03-30T04:59:49.619Z,11.63
2019-03-30T05:02:21.687Z,11.33
2019-03-30T05:04:51.352Z,11.07
2019-03-30T05:07:21.453Z,12.17
2019-03-30T05:09:51.120Z,11.07
2019-03-30T05:12:21.480Z,12.57
2019-03-30T05:14:51.555Z,11.97
2019-03-30T05:17:20.985Z,12.53
2019-03-30T05:19:50.794Z,12.90
2019-03-30T05:22:20.479Z,12.13
2019-03-30T05:24:50.096Z,11.97
2019-03-30T05:27:20.107Z,12.33
2019-03-30T05:29:49.848Z,12.50
2019-03-30T05:32:19.331Z,11.60
2019-03-30T05:34:49.452Z,13.17
2019-03-30T05:37:19.147Z,12.13
2019-03-30T05:39:48.694Z,12.07
2019-03-30T05:42:21.563Z,12.00
2019-03-30T05:44:50.966Z,13.00
2019-03-30T05:47:20.741Z,12.47
2019-03-30T05:49:50.585Z,11.43
2019-03-30T05:52:26.249Z,11.53
2019-03-30T05:54:51.673Z,10.83
2019-03-30T05:57:21.487Z,10.97
2019-03-30T05:59:51.235Z,11.00
2019-03-30T06:02:20.952Z,11.20
2019-03-30T06:04:50.438Z,10.27
2019-03-30T06:07:20.067Z,10.67
2019-03-30T06:09:49.789Z,10.23
2019-03-30T06:12:19.794Z,9.83
2019-03-30T06:14:49.231Z,10.17
2019-03-30T06:17:18.801Z,10.23
2019-03-30T06:19:49.036Z,10.57
2019-03-30T06:22:18.725Z,9.60
2019-03-30T06:24:48.568Z,12.40
2019-03-30T06:27:18.129Z,21.97
2019-03-30T06:30:06.802Z,11.63
2019-03-30T06:32:37.421Z,11.23
2019-03-30T06:35:06.916Z,11.20
2019-03-30T06:37:36.453Z,10.80
2019-03-30T06:40:06.160Z,11.40
2019-03-30T06:42:36.115Z,11.87
2019-03-30T06:45:05.858Z,11.60
2019-03-30T06:47:35.565Z,11.37
2019-03-30T06:50:05.812Z,12.10
2019-03-30T06:52:35.332Z,11.50
2019-03-30T06:55:05.263Z,13.60
2019-03-30T06:57:34.836Z,13.17
2019-03-30T07:00:04.568Z,13.20
2019-03-30T07:02:34.427Z,12.47
2019-03-30T07:05:04.229Z,12.70
2019-03-30T07:07:34.047Z,13.90
2019-03-30T07:10:04.576Z,14.20
2019-03-30T07:12:36.451Z,11.70
2019-03-30T07:15:06.576Z,13.47
2019-03-30T07:17:38.824Z,11.93
2019-03-30T07:20:10.477Z,13.30
2019-03-30T07:22:40.439Z,13.17
2019-03-30T07:25:10.202Z,12.33
2019-03-30T07:27:39.810Z,12.93
2019-03-30T07:30:09.724Z,12.83
2019-03-30T07:32:39.440Z,13.00
2019-03-30T07:35:09.148Z,13.73
2019-03-30T07:37:38.881Z,13.53
2019-03-30T07:40:08.817Z,13.10
2019-03-30T07:42:38.418Z,14.33
2019-03-30T07:45:08.253Z,13.27
2019-03-30T07:47:38.028Z,14.80
2019-03-30T07:50:07.643Z,13.97
2019-03-30T07:52:37.326Z,13.53
2019-03-30T07:55:07.317Z,13.80
2019-03-30T07:57:37.361Z,14.03
2019-03-30T08:00:07.144Z,14.37
2019-03-30T08:02:37.204Z,14.67
2019-03-30T08:05:06.896Z,14.77
2019-03-30T08:07:36.564Z,13.90
2019-03-30T08:10:06.199Z,14.30
2019-03-30T08:12:35.829Z,14.00
2019-03-30T08:15:05.716Z,14.10
2019-03-30T08:17:35.299Z,13.53
2019-03-30T08:20:05.154Z,13.27
2019-03-30T08:22:34.811Z,13.67
2019-03-30T08:25:04.613Z,13.17
2019-03-30T08:27:34.236Z,13.27
2019-03-30T08:30:03.865Z,13.47
2019-03-30T08:32:33.774Z,13.20
2019-03-30T08:35:03.472Z,13.27
2019-03-30T08:37:32.876Z,12.17
2019-03-30T08:40:02.474Z,13.43
2019-03-30T08:42:32.322Z,12.60
2019-03-30T08:45:01.923Z,12.53
2019-03-30T08:47:31.294Z,11.97
2019-03-30T08:50:00.913Z,12.67
2019-03-30T08:52:30.507Z,12.70
2019-03-30T08:55:00.357Z,13.30
2019-03-30T08:57:30.545Z,13.43
2019-03-30T09:00:00.370Z,13.27
2019-03-30T09:02:30.279Z,12.60
2019-03-30T09:05:00.050Z,13.43
2019-03-30T09:07:29.995Z,13.47
2019-03-30T09:09:59.504Z,14.43
2019-03-30T09:12:29.019Z,12.77
2019-03-30T09:14:58.821Z,13.20
2019-03-30T09:17:28.509Z,13.80
2019-03-30T09:19:58.474Z,13.80
2019-03-30T09:22:28.664Z,13.50
2019-03-30T09:24:58.474Z,13.10
2019-03-30T09:27:28.527Z,13.83
2019-03-30T09:29:58.477Z,13.77
2019-03-30T09:32:28.051Z,13.33
2019-03-30T09:34:57.732Z,14.40
2019-03-30T09:37:27.243Z,13.23
2019-03-30T09:39:56.697Z,14.10
2019-03-30T09:42:26.341Z,14.83
2019-03-30T09:44:56.119Z,14.33
2019-03-30T09:47:25.627Z,14.10
2019-03-30T09:49:55.768Z,14.53
2019-03-30T09:52:25.429Z,14.37
2019-03-30T09:54:55.076Z,13.83
2019-03-30T09:57:25.064Z,14.00
2019-03-30T09:59:55.038Z,14.40
2019-03-30T10:02:24.608Z,13.53
2019-03-30T10:04:54.317Z,13.93
2019-03-30T10:07:23.872Z,14.90
2019-03-30T10:09:53.774Z,13.80
2019-03-30T10:12:23.346Z,14.17
2019-03-30T10:14:53.297Z,13.43
2019-03-30T10:17:23.011Z,14.50
2019-03-30T10:20:03.648Z,13.57
2019-03-30T10:22:23.535Z,13.70
2019-03-30T10:24:53.446Z,13.60
2019-03-30T10:27:23.346Z,14.73
2019-03-30T10:29:52.864Z,14.27
2019-03-30T10:32:22.354Z,14.33
2019-03-30T10:34:54.242Z,13.50
2019-03-30T10:37:23.796Z,13.07
2019-03-30T10:39:53.459Z,14.37
2019-03-30T10:42:23.014Z,13.77
2019-03-30T10:44:52.417Z,13.07
2019-03-30T10:47:22.119Z,12.87
2019-03-30T10:49:51.638Z,14.57
2019-03-30T10:52:21.033Z,14.33
2019-03-30T10:54:53.096Z,13.73
2019-03-30T10:57:22.415Z,13.53
2019-03-30T10:59:52.113Z,13.57
2019-03-30T11:02:21.787Z,12.03
2019-03-30T11:04:52.638Z,12.17
2019-03-30T11:07:22.463Z,11.93
2019-03-30T11:09:52.269Z,12.67
2019-03-30T11:12:21.985Z,12.50
2019-03-30T11:14:51.380Z,11.90
2019-03-30T11:17:21.133Z,13.13
2019-03-30T11:19:50.900Z,10.93
2019-03-30T11:22:20.188Z,11.90
2019-03-30T11:24:50.811Z,11.57
2019-03-30T11:27:20.551Z,12.60
2019-03-30T11:29:50.455Z,12.90
2019-03-30T11:32:19.938Z,13.43
2019-03-30T11:34:49.981Z,13.50
2019-03-30T11:37:19.402Z,12.33
2019-03-30T11:39:49.229Z,11.93
2019-03-30T11:42:18.904Z,12.97
2019-03-30T11:44:48.608Z,12.27
2019-03-30T11:47:18.855Z,12.33
2019-03-30T11:49:48.880Z,12.80
2019-03-30T11:52:18.863Z,11.97
2019-03-30T11:54:48.376Z,12.20
2019-03-30T11:57:17.965Z,10.83
2019-03-30T11:59:47.709Z,11.17
2019-03-30T12:02:27.916Z,13.70
2019-03-30T12:04:48.799Z,13.23
2019-03-30T12:07:18.806Z,14.87
2019-03-30T12:09:48.362Z,11.63
2019-03-30T12:12:17.996Z,13.17
2019-03-30T12:14:48.026Z,13.63
2019-03-30T12:17:17.773Z,15.13
2019-03-30T12:19:47.251Z,11.27
2019-03-30T12:22:16.696Z,11.33
2019-03-30T12:24:46.130Z,9.97
2019-03-30T12:27:15.750Z,12.10
2019-03-30T12:29:45.112Z,12.23
2019-03-30T12:32:18.208Z,12.37
2019-03-30T12:34:48.213Z,12.67
2019-03-30T12:37:18.018Z,11.80
2019-03-30T12:39:48.428Z,10.63
2019-03-30T12:42:18.365Z,11.20
2019-03-30T12:44:48.431Z,11.17
2019-03-30T12:47:17.866Z,10.63
2019-03-30T12:49:47.787Z,10.63
2019-03-30T12:52:17.306Z,10.03
2019-03-30T12:54:47.528Z,10.30
2019-03-30T12:57:17.419Z,9.17
2019-03-30T12:59:47.365Z,10.00
2019-03-30T13:02:16.936Z,9.00
2019-03-30T13:04:46.644Z,10.03
2019-03-30T13:07:16.565Z,9.80
2019-03-30T13:09:46.422Z,9.73
2019-03-30T13:12:16.237Z,8.60
2019-03-30T13:14:46.149Z,6.63
2019-03-30T13:17:15.732Z,6.07
2019-03-30T13:19:45.768Z,5.67
2019-03-30T13:22:15.232Z,6.20
2019-03-30T13:24:45.077Z,5.63
2019-03-30T13:27:15.070Z,5.37
2019-03-30T13:29:44.967Z,6.57
2019-03-30T13:32:14.555Z,5.30
2019-03-30T13:34:44.640Z,5.57
2019-03-30T13:37:16.657Z,5.63
2019-03-30T13:39:46.941Z,6.80
2019-03-30T13:42:16.407Z,6.27
2019-03-30T13:44:45.844Z,5.93
2019-03-30T13:47:15.588Z,6.23
2019-03-30T13:49:45.520Z,5.90
2019-03-30T13:52:15.201Z,5.50
2019-03-30T13:54:44.723Z,6.50
2019-03-30T13:57:14.628Z,5.67
2019-03-30T13:59:44.503Z,5.10
2019-03-30T14:02:14.530Z,4.90
2019-03-30T14:04:44.280Z,5.57
2019-03-30T14:07:13.873Z,4.90
2019-03-30T14:09:44.040Z,5.87
2019-03-30T14:15:37.053Z,7.20
2019-03-30T14:18:06.993Z,6.37
2019-03-30T14:20:36.655Z,6.30
2019-03-30T14:23:06.545Z,6.83
2019-03-30T14:25:36.094Z,6.90
2019-03-30T14:28:06.968Z,5.70
2019-03-30T14:30:36.435Z,8.17
2019-03-30T14:33:06.306Z,6.13
2019-03-30T14:35:35.963Z,5.73
2019-03-30T14:38:05.780Z,6.30
2019-03-30T14:40:35.736Z,5.70
2019-03-30T14:43:05.696Z,6.73
2019-03-30T14:45:35.429Z,6.37
2019-03-30T14:48:05.338Z,6.40
2019-03-30T14:50:37.709Z,6.13
2019-03-30T14:53:07.424Z,6.23
2019-03-30T14:55:39.547Z,6.17
2019-03-30T14:58:08.783Z,6.07
2019-03-30T15:00:38.899Z,5.77
2019-03-30T15:03:08.478Z,7.60
2019-03-30T15:05:38.259Z,6.63
2019-03-30T15:08:07.871Z,6.87
2019-03-30T15:10:37.643Z,7.33
2019-03-30T15:13:07.887Z,7.60
2019-03-30T15:15:37.350Z,8.17
2019-03-30T15:18:07.158Z,8.53
2019-03-30T15:20:36.660Z,7.40
2019-03-30T15:23:06.701Z,7.53
2019-03-30T15:25:36.507Z,8.93
2019-03-30T15:28:06.562Z,8.17
2019-03-30T15:30:36.268Z,8.93
2019-03-30T15:33:05.939Z,8.90
2019-03-30T15:35:35.990Z,9.40
2019-03-30T15:38:05.560Z,8.67
2019-03-30T15:40:35.562Z,9.70
2019-03-30T15:43:05.167Z,9.37
2019-03-30T15:45:34.898Z,10.80
2019-03-30T15:48:04.904Z,11.00
2019-03-30T15:50:34.623Z,10.10
2019-03-30T15:53:04.188Z,10.83
2019-03-30T15:55:36.347Z,10.33
2019-03-30T15:58:06.051Z,10.67
2019-03-30T16:00:35.499Z,11.03
2019-03-30T16:03:05.086Z,10.87
2019-03-30T16:05:34.920Z,11.47
2019-03-30T16:08:04.694Z,10.77
2019-03-30T16:10:37.102Z,12.10
2019-03-30T16:13:06.618Z,11.33
2019-03-30T16:15:36.327Z,11.07
2019-03-30T16:18:06.066Z,11.60
2019-03-30T16:20:35.508Z,10.60
2019-03-30T16:23:05.570Z,12.03
2019-03-30T16:25:35.306Z,10.90
2019-03-30T16:28:05.212Z,10.53
2019-03-30T16:30:34.837Z,12.20
2019-03-30T16:33:04.623Z,13.03
2019-03-30T16:35:34.711Z,12.90
2019-03-30T16:38:04.681Z,13.03
2019-03-30T16:40:34.635Z,11.87
2019-03-30T16:43:04.622Z,11.90
2019-03-30T16:45:34.939Z,13.37
2019-03-30T16:48:04.658Z,11.90
2019-03-30T16:50:34.142Z,12.80
2019-03-30T16:53:03.908Z,12.97
2019-03-30T16:55:33.541Z,12.90
2019-03-30T16:58:03.390Z,13.43
2019-03-30T17:00:33.866Z,12.97
2019-03-30T17:03:03.720Z,12.50
2019-03-30T17:05:33.015Z,13.40
2019-03-30T17:08:02.607Z,13.57
2019-03-30T17:10:32.212Z,11.60
2019-03-30T17:13:03.774Z,12.93
2019-03-30T17:15:33.201Z,14.73
2019-03-30T17:18:02.709Z,13.87
2019-03-30T17:20:32.615Z,13.83
2019-03-30T17:23:32.228Z,14.40
2019-03-30T17:26:02.090Z,14.20
2019-03-30T17:28:33.378Z,13.53
2019-03-30T17:31:03.367Z,12.13
2019-03-30T17:33:33.190Z,21.17
2019-03-30T17:36:02.906Z,17.27
2019-03-30T17:38:32.525Z,17.47
2019-03-30T17:41:02.254Z,20.37
2019-03-30T17:43:32.037Z,15.53
2019-03-30T17:46:01.400Z,16.40
2019-03-30T17:48:31.075Z,17.20
2019-03-30T17:51:00.816Z,19.33
2019-03-30T17:53:30.500Z,18.67
2019-03-30T17:56:01.876Z,19.83
2019-03-30T17:58:31.334Z,17.60
2019-03-30T18:01:00.975Z,32.57
2019-03-30T18:03:30.730Z,49.07
2019-03-30T18:06:00.440Z,25.20
2019-03-30T18:08:32.626Z,18.07
2019-03-30T18:11:04.105Z,17.07
2019-03-30T18:13:36.722Z,24.20
2019-03-30T18:16:05.631Z,20.50
2019-03-30T18:18:35.343Z,19.03
2019-03-30T18:21:05.142Z,18.10
2019-03-30T18:23:34.977Z,17.83
2019-03-30T18:26:04.603Z,18.33
2019-03-30T18:28:35.325Z,17.60
2019-03-30T18:31:04.812Z,19.37
2019-03-30T18:33:34.741Z,18.50
2019-03-30T18:36:05.255Z,18.40
2019-03-30T18:38:36.771Z,19.30
2019-03-30T18:41:06.754Z,18.73
2019-03-30T18:43:36.656Z,18.70
2019-03-30T18:46:06.233Z,18.73
2019-03-30T18:48:35.697Z,19.43
2019-03-30T18:51:05.709Z,21.57
2019-03-30T18:53:39.352Z,20.23
2019-03-30T18:56:08.956Z,19.50
2019-03-30T18:58:41.944Z,18.80
2019-03-30T19:01:10.105Z,17.60
2019-03-30T19:03:39.954Z,21.03
2019-03-30T19:06:09.555Z,20.70
2019-03-30T19:08:39.420Z,19.47
2019-03-30T19:11:09.143Z,18.27
2019-03-30T19:13:38.548Z,19.80
2019-03-30T19:16:08.555Z,18.07
2019-03-30T19:18:38.049Z,19.40
2019-03-30T19:21:07.678Z,27.77
2019-03-30T19:23:37.259Z,23.03
2019-03-30T19:26:07.135Z,19.57
2019-03-30T19:28:36.911Z,19.13
2019-03-30T19:31:06.575Z,19.17
2019-03-30T19:33:36.419Z,19.83
2019-03-30T19:36:09.816Z,18.40
2019-03-30T19:38:37.650Z,19.27
2019-03-30T19:41:07.499Z,19.87
2019-03-30T19:43:37.306Z,20.77
2019-03-30T19:46:07.379Z,22.43
2019-03-30T19:48:37.231Z,19.73
2019-03-30T19:51:07.063Z,20.37
2019-03-30T19:53:36.654Z,21.70
2019-03-30T19:56:06.211Z,20.90
2019-03-30T19:58:35.791Z,20.17
2019-03-30T20:01:05.748Z,21.73
2019-03-30T20:03:35.578Z,21.03
2019-03-30T20:06:05.380Z,20.73
2019-03-30T20:08:35.031Z,21.10
2019-03-30T20:11:04.851Z,21.73
2019-03-30T20:13:34.510Z,21.00
2019-03-30T20:16:04.238Z,22.97
2019-03-30T20:18:34.563Z,21.20
2019-03-30T20:21:04.608Z,21.67
2019-03-30T20:23:34.192Z,22.27
2019-03-30T20:26:04.469Z,23.27
2019-03-30T20:28:33.935Z,21.73
2019-03-30T20:31:04.004Z,23.43
2019-03-30T20:33:33.760Z,24.37
2019-03-30T20:36:03.335Z,27.80
2019-03-30T20:38:32.941Z,28.73
2019-03-30T20:41:02.560Z,25.53
2019-03-30T20:43:32.176Z,23.40
2019-03-30T20:46:01.872Z,23.70
2019-03-30T20:48:31.501Z,23.53
2019-03-30T20:51:04.045Z,24.23
2019-03-30T20:53:33.866Z,23.73
2019-03-30T20:56:03.576Z,24.37
2019-03-30T20:58:32.842Z,25.77
2019-03-30T21:01:02.721Z,24.60
2019-03-30T21:03:32.844Z,26.30
2019-03-30T21:06:02.815Z,23.97
2019-03-30T21:08:32.632Z,23.33
2019-03-30T21:11:02.233Z,24.70
2019-03-30T21:13:32.339Z,24.30
2019-03-30T21:16:01.894Z,25.17
2019-03-30T21:18:31.670Z,24.93
2019-03-30T21:21:01.188Z,23.87
2019-03-30T21:23:31.194Z,23.13
2019-03-30T21:26:01.105Z,23.93
2019-03-30T21:28:30.726Z,24.47
2019-03-30T21:31:00.657Z,23.40
2019-03-30T21:33:30.513Z,23.07
2019-03-30T21:36:01.090Z,24.77
2019-03-30T21:38:30.552Z,27.37
2019-03-30T21:41:00.379Z,26.37
2019-03-30T21:43:30.203Z,26.83
2019-03-30T21:45:59.892Z,35.77
2019-03-30T21:48:29.518Z,31.30
2019-03-30T21:50:59.271Z,28.43
2019-03-30T21:53:29.001Z,28.97
2019-03-30T21:55:59.066Z,26.00
2019-03-30T21:58:28.902Z,25.40
2019-03-30T22:01:00.010Z,24.07
2019-03-30T22:03:29.831Z,23.53
2019-03-30T22:05:59.920Z,22.30
2019-03-30T22:08:29.798Z,23.77
2019-03-30T22:10:59.936Z,24.37
2019-03-30T22:13:29.941Z,25.80
2019-03-30T22:15:59.797Z,25.07
2019-03-30T22:18:30.003Z,24.90
2019-03-30T22:20:59.661Z,24.70
2019-03-30T22:23:29.323Z,22.83
2019-03-30T22:25:59.263Z,23.73
2019-03-30T22:28:28.874Z,23.27
2019-03-30T22:30:58.534Z,24.23
2019-03-30T22:33:30.787Z,23.83
2019-03-30T22:35:59.820Z,22.47
2019-03-30T22:38:29.885Z,23.33
2019-03-30T22:40:59.759Z,21.53
2019-03-30T22:43:29.618Z,22.27
2019-03-30T22:45:59.052Z,21.10
2019-03-30T22:48:28.526Z,21.93
2019-03-30T22:50:58.112Z,23.93
2019-03-30T22:53:28.001Z,24.00
2019-03-30T22:55:57.462Z,22.10
2019-03-30T22:58:27.099Z,21.27
2019-03-30T23:01:17.681Z,21.80
2019-03-30T23:03:47.567Z,21.17
2019-03-30T23:06:17.192Z,22.73
2019-03-30T23:08:46.925Z,22.00
2019-03-30T23:11:16.606Z,21.80
2019-03-30T23:13:46.441Z,21.80
2019-03-30T23:16:15.918Z,20.80
2019-03-30T23:18:46.074Z,22.30
2019-03-30T23:21:15.485Z,19.73
2019-03-30T23:23:44.893Z,22.87
2019-03-30T23:26:14.547Z,21.40
2019-03-30T23:28:44.369Z,20.07
2019-03-30T23:31:13.943Z,20.23
2019-03-30T23:33:43.766Z,20.37
2019-03-30T23:36:13.286Z,20.27
2019-03-30T23:38:42.793Z,21.47
2019-03-30T23:41:12.440Z,20.87
2019-03-30T23:43:45.287Z,20.03
2019-03-30T23:46:15.250Z,20.10
2019-03-30T23:48:47.283Z,20.87
2019-03-30T23:51:17.400Z,22.17
2019-03-30T23:53:47.222Z,19.03
2019-03-30T23:56:23.809Z,19.77
2019-03-30T23:58:53.959Z,21.53
